TAF PAKN
PAKN 270534Z 2706/2806 VRB04KT P6SM BKN040=
METAR PAKN
WC PAKN
WS PAKN
WV PAKN